Sealyon — 2CGJ2 — position and weather

sailwx.info

Track history (hours):
 
Tides and Currents Weather Stations Pressure Air Temp Water Temp Dewpoint Dewpoint Depression Visibility Wind Speed Wind Dir Waves Ship Positions

Sealyon

Last reported at 2017-Mar-24 18:33 UTC. Time now 2017-Mar-29 22:57 UTC.
Position N 18°21' W 064°52'.

Length 62 m; draft 3.2 m.

Type: Pleasure craft. MMSI: 235072538.

Date/timePositionNaut miles runAvg speedWind from/ knotsBaromVisibWave heightAir tempDewpointWater temp
2017-Mar-24 18:33N 18°21' W 064°52'4 4.1
2017-Mar-24 17:33N 18°20' W 064°48'0 0.0
2017-Mar-24 16:33N 18°20' W 064°48'10 0.6
2017-Mar-23 23:08N 18°20' W 064°38'610.7
2017-Mar-23 22:33N 18°24' W 064°43'0 0.3
2017-Mar-23 21:21N 18°24' W 064°43'3 0.5
2017-Mar-23 15:27N 18°22' W 064°41'6 6.6
2017-Mar-23 14:29N 18°26' W 064°45'0 0.0
2017-Mar-23 13:12N 18°26' W 064°45'0 0.0
2017-Mar-23 12:25N 18°26' W 064°45'0 0.0
2017-Mar-23 11:33N 18°26' W 064°45'0 0.0
2017-Mar-23 10:33N 18°26' W 064°45'0 0.0
2017-Mar-23 09:33N 18°26' W 064°45'0 0.0
2017-Mar-23 08:33N 18°26' W 064°45'0 0.0
2017-Mar-23 07:33N 18°26' W 064°45'0 0.0
2017-Mar-23 06:33N 18°26' W 064°45'0 0.0
2017-Mar-23 05:33N 18°26' W 064°45'0 0.0
2017-Mar-23 04:33N 18°26' W 064°45'0 0.0
2017-Mar-23 03:33N 18°26' W 064°45'0 0.0
2017-Mar-23 02:33N 18°26' W 064°45'0 0.0
2017-Mar-23 01:33N 18°26' W 064°45'0 0.0
2017-Mar-23 00:33N 18°26' W 064°45'0 0.0
2017-Mar-22 23:33N 18°26' W 064°45'0 0.0
2017-Mar-22 22:33N 18°26' W 064°45'6 6.1
2017-Mar-22 21:33N 18°22' W 064°40'4 1.4
2017-Mar-22 18:32N 18°21' W 064°36'2 0.6
2017-Mar-22 15:33N 18°22' W 064°35'3 0.7
2017-Mar-22 12:09N 18°23' W 064°32'0 0.0
2017-Mar-22 10:28N 18°23' W 064°32'0 0.0
2017-Mar-22 08:18N 18°23' W 064°32'0 0.0
2017-Mar-22 07:30N 18°23' W 064°32'0 0.0
2017-Mar-22 06:13N 18°23' W 064°32'0 0.0
2017-Mar-21 23:25N 18°23' W 064°32'6 2.8
2017-Mar-21 21:17N 18°26' W 064°27'0 0.0
2017-Mar-21 20:12N 18°26' W 064°27'5 0.1
2017-Mar-19 23:33N 18°24' W 064°32'1413.7
2017-Mar-19 22:33N 18°18' W 064°45'7 1.3
2017-Mar-19 17:05N 18°18' W 064°52'3 3.1
2017-Mar-19 16:14N 18°19' W 064°50'2 1.9
2017-Mar-19 15:16N 18°20' W 064°48'0 0.0
2017-Mar-19 14:29N 18°20' W 064°48'0 0.5
2017-Mar-19 13:33N 18°20' W 064°48'8 0.4
2017-Mar-18 18:15N 18°22' W 064°39'3 4.9
2017-Mar-18 17:33N 18°23' W 064°42'3 3.4
2017-Mar-18 16:33N 18°22' W 064°39'4 0.2
2017-Mar-17 21:28N 18°22' W 064°35'  
Track history (hours):
 
Tides and Currents Weather Stations Pressure Air Temp Water Temp Dewpoint Dewpoint Depression Visibility Wind Speed Wind Dir Waves Ship Positions

Sealyon

Last reported at 2017-Mar-24 18:33 UTC. Time now 2017-Mar-29 22:57 UTC.
Position N 18°21' W 064°52'.

Length 62 m; draft 3.2 m.

Type: Pleasure craft. MMSI: 235072538.

Date/timePositionNaut miles runAvg speedWind from/ knotsBaromVisibWave heightAir tempDewpointWater temp
2017-Mar-24 18:33N 18°21' W 064°52'4 4.1
2017-Mar-24 17:33N 18°20' W 064°48'0 0.0
2017-Mar-24 16:33N 18°20' W 064°48'10 0.6
2017-Mar-23 23:08N 18°20' W 064°38'610.7
2017-Mar-23 22:33N 18°24' W 064°43'0 0.3
2017-Mar-23 21:21N 18°24' W 064°43'3 0.5
2017-Mar-23 15:27N 18°22' W 064°41'6 6.6
2017-Mar-23 14:29N 18°26' W 064°45'0 0.0
2017-Mar-23 13:12N 18°26' W 064°45'0 0.0
2017-Mar-23 12:25N 18°26' W 064°45'0 0.0
2017-Mar-23 11:33N 18°26' W 064°45'0 0.0
2017-Mar-23 10:33N 18°26' W 064°45'0 0.0
2017-Mar-23 09:33N 18°26' W 064°45'0 0.0
2017-Mar-23 08:33N 18°26' W 064°45'0 0.0
2017-Mar-23 07:33N 18°26' W 064°45'0 0.0
2017-Mar-23 06:33N 18°26' W 064°45'0 0.0
2017-Mar-23 05:33N 18°26' W 064°45'0 0.0
2017-Mar-23 04:33N 18°26' W 064°45'0 0.0
2017-Mar-23 03:33N 18°26' W 064°45'0 0.0
2017-Mar-23 02:33N 18°26' W 064°45'0 0.0
2017-Mar-23 01:33N 18°26' W 064°45'0 0.0
2017-Mar-23 00:33N 18°26' W 064°45'0 0.0
2017-Mar-22 23:33N 18°26' W 064°45'0 0.0
2017-Mar-22 22:33N 18°26' W 064°45'6 6.1
2017-Mar-22 21:33N 18°22' W 064°40'4 1.4
2017-Mar-22 18:32N 18°21' W 064°36'2 0.6
2017-Mar-22 15:33N 18°22' W 064°35'3 0.7
2017-Mar-22 12:09N 18°23' W 064°32'0 0.0
2017-Mar-22 10:28N 18°23' W 064°32'0 0.0
2017-Mar-22 08:18N 18°23' W 064°32'0 0.0
2017-Mar-22 07:30N 18°23' W 064°32'0 0.0
2017-Mar-22 06:13N 18°23' W 064°32'0 0.0
2017-Mar-21 23:25N 18°23' W 064°32'6 2.8
2017-Mar-21 21:17N 18°26' W 064°27'0 0.0
2017-Mar-21 20:12N 18°26' W 064°27'5 0.1
2017-Mar-19 23:33N 18°24' W 064°32'1413.7
2017-Mar-19 22:33N 18°18' W 064°45'7 1.3
2017-Mar-19 17:05N 18°18' W 064°52'3 3.1
2017-Mar-19 16:14N 18°19' W 064°50'2 1.9
2017-Mar-19 15:16N 18°20' W 064°48'0 0.0
2017-Mar-19 14:29N 18°20' W 064°48'0 0.5
2017-Mar-19 13:33N 18°20' W 064°48'8 0.4
2017-Mar-18 18:15N 18°22' W 064°39'3 4.9
2017-Mar-18 17:33N 18°23' W 064°42'3 3.4
2017-Mar-18 16:33N 18°22' W 064°39'4 0.2
2017-Mar-17 21:28N 18°22' W 064°35'  

Dump ship's entire track history